sensor_id;sensor_type;location;lat;lon;timestamp;pressure;altitude;pressure_sealevel;temperature;humidity
37142;BME280;23041;49.816;20.092;2022-10-22T00:00:44;97569.08;;;10.12;59.45
37142;BME280;23041;49.816;20.092;2022-10-22T00:03:13;97564.11;;;10.07;59.53
37142;BME280;23041;49.816;20.092;2022-10-22T00:05:39;97545.50;;;9.82;59.64
37142;BME280;23041;49.816;20.092;2022-10-22T00:08:05;97551.31;;;9.84;59.72
37142;BME280;23041;49.816;20.092;2022-10-22T00:10:32;97572.13;;;9.90;59.78
37142;BME280;23041;49.816;20.092;2022-10-22T00:12:58;97571.55;;;9.82;59.83
37142;BME280;23041;49.816;20.092;2022-10-22T00:15:25;97568.34;;;9.67;59.90
37142;BME280;23041;49.816;20.092;2022-10-22T00:17:51;97571.23;;;9.60;60.00
37142;BME280;23041;49.816;20.092;2022-10-22T00:20:18;97584.06;;;9.55;60.12
37142;BME280;23041;49.816;20.092;2022-10-22T00:22:44;97575.80;;;9.39;60.19
37142;BME280;23041;49.816;20.092;2022-10-22T00:25:10;97564.58;;;9.33;60.31
37142;BME280;23041;49.816;20.092;2022-10-22T00:27:37;97573.12;;;9.35;60.43
37142;BME280;23041;49.816;20.092;2022-10-22T00:30:04;97569.78;;;9.28;60.51
37142;BME280;23041;49.816;20.092;2022-10-22T00:32:31;97568.47;;;9.24;60.60
37142;BME280;23041;49.816;20.092;2022-10-22T00:34:57;97555.99;;;9.23;60.69
37142;BME280;23041;49.816;20.092;2022-10-22T00:37:24;97566.59;;;9.21;60.80
37142;BME280;23041;49.816;20.092;2022-10-22T00:39:50;97551.79;;;8.99;60.91
37142;BME280;23041;49.816;20.092;2022-10-22T00:42:20;97551.92;;;8.92;61.05
37142;BME280;23041;49.816;20.092;2022-10-22T00:47:37;97553.36;;;9.08;61.27
37142;BME280;23041;49.816;20.092;2022-10-22T00:50:10;97556.51;;;9.07;61.38
37142;BME280;23041;49.816;20.092;2022-10-22T00:52:38;97559.33;;;9.03;61.45
37142;BME280;23041;49.816;20.092;2022-10-22T00:55:06;97553.16;;;8.99;61.53
37142;BME280;23041;49.816;20.092;2022-10-22T00:57:34;97552.70;;;8.92;61.58
37142;BME280;23041;49.816;20.092;2022-10-22T01:00:01;97553.63;;;8.94;61.68
37142;BME280;23041;49.816;20.092;2022-10-22T01:02:29;97556.31;;;8.97;61.79
37142;BME280;23041;49.816;20.092;2022-10-22T01:04:56;97560.23;;;8.96;61.85
37142;BME280;23041;49.816;20.092;2022-10-22T01:07:23;97554.34;;;8.98;61.92
37142;BME280;23041;49.816;20.092;2022-10-22T01:10:02;97554.80;;;9.05;61.97
37142;BME280;23041;49.816;20.092;2022-10-22T01:15:55;97549.66;;;9.07;62.14
37142;BME280;23041;49.816;20.092;2022-10-22T01:32:09;97559.46;;;8.96;62.47
37142;BME280;23041;49.816;20.092;2022-10-22T01:34:41;97559.59;;;8.89;62.54
37142;BME280;23041;49.816;20.092;2022-10-22T01:37:11;97554.07;;;8.92;62.61
37142;BME280;23041;49.816;20.092;2022-10-22T01:39:41;97553.24;;;8.84;62.67
37142;BME280;23041;49.816;20.092;2022-10-22T01:42:10;97554.61;;;8.84;62.76
37142;BME280;23041;49.816;20.092;2022-10-22T01:44:38;97543.88;;;8.73;62.86
37142;BME280;23041;49.816;20.092;2022-10-22T01:47:17;97541.37;;;8.71;62.97
37142;BME280;23041;49.816;20.092;2022-10-22T01:50:31;97540.27;;;8.68;63.04
37142;BME280;23041;49.816;20.092;2022-10-22T01:58:32;97536.91;;;8.80;63.24
37142;BME280;23041;49.816;20.092;2022-10-22T02:04:17;97533.21;;;8.79;63.34
37142;BME280;23041;49.816;20.092;2022-10-22T02:06:53;97525.63;;;8.67;63.37
37142;BME280;23041;49.816;20.092;2022-10-22T02:09:24;97525.23;;;8.56;63.38
37142;BME280;23041;49.816;20.092;2022-10-22T02:11:52;97519.24;;;8.42;63.40
37142;BME280;23041;49.816;20.092;2022-10-22T02:14:20;97518.66;;;8.31;63.43
37142;BME280;23041;49.816;20.092;2022-10-22T02:16:49;97524.66;;;8.22;63.47
37142;BME280;23041;49.816;20.092;2022-10-22T02:19:29;97519.79;;;8.10;63.53
37142;BME280;23041;49.816;20.092;2022-10-22T02:22:00;97509.78;;;7.88;63.63
37142;BME280;23041;49.816;20.092;2022-10-22T02:24:27;97507.16;;;7.81;63.71
37142;BME280;23041;49.816;20.092;2022-10-22T02:32:42;97518.16;;;7.77;63.95
37142;BME280;23041;49.816;20.092;2022-10-22T02:35:20;97516.22;;;7.63;64.00
37142;BME280;23041;49.816;20.092;2022-10-22T02:37:48;97511.97;;;7.62;64.04
37142;BME280;23041;49.816;20.092;2022-10-22T02:40:15;97514.48;;;7.49;64.09
37142;BME280;23041;49.816;20.092;2022-10-22T02:42:42;97516.20;;;7.51;64.17
37142;BME280;23041;49.816;20.092;2022-10-22T02:45:11;97516.48;;;7.45;64.26
37142;BME280;23041;49.816;20.092;2022-10-22T02:47:37;97527.25;;;7.44;64.35
37142;BME280;23041;49.816;20.092;2022-10-22T02:50:05;97528.52;;;7.36;64.43
37142;BME280;23041;49.816;20.092;2022-10-22T02:52:32;97527.80;;;7.32;64.49
37142;BME280;23041;49.816;20.092;2022-10-22T02:54:58;97516.96;;;7.10;64.56
37142;BME280;23041;49.816;20.092;2022-10-22T02:57:25;97517.55;;;7.09;64.65
37142;BME280;23041;49.816;20.092;2022-10-22T02:59:51;97527.56;;;7.04;64.72
37142;BME280;23041;49.816;20.092;2022-10-22T03:02:18;97529.22;;;7.13;64.79
37142;BME280;23041;49.816;20.092;2022-10-22T03:04:44;97540.83;;;7.21;64.87
37142;BME280;23041;49.816;20.092;2022-10-22T03:07:10;97537.72;;;7.19;64.91
37142;BME280;23041;49.816;20.092;2022-10-22T03:09:37;97530.98;;;7.12;64.96
37142;BME280;23041;49.816;20.092;2022-10-22T03:12:04;97521.83;;;7.10;65.01
37142;BME280;23041;49.816;20.092;2022-10-22T03:14:31;97522.20;;;7.12;65.06
37142;BME280;23041;49.816;20.092;2022-10-22T03:16:57;97528.25;;;7.12;65.12
37142;BME280;23041;49.816;20.092;2022-10-22T03:19:24;97525.58;;;7.08;65.13
37142;BME280;23041;49.816;20.092;2022-10-22T03:22:00;97528.20;;;7.00;65.16
37142;BME280;23041;49.816;20.092;2022-10-22T03:24:34;97532.63;;;6.90;65.17
37142;BME280;23041;49.816;20.092;2022-10-22T03:27:01;97537.78;;;6.81;65.19
37142;BME280;23041;49.816;20.092;2022-10-22T03:29:30;97530.64;;;6.57;65.24
37142;BME280;23041;49.816;20.092;2022-10-22T03:31:59;97537.25;;;6.41;65.31
37142;BME280;23041;49.816;20.092;2022-10-22T03:34:25;97545.90;;;6.51;65.38
37142;BME280;23041;49.816;20.092;2022-10-22T03:36:52;97544.86;;;6.56;65.47
37142;BME280;23041;49.816;20.092;2022-10-22T03:39:20;97538.03;;;6.60;65.55
37142;BME280;23041;49.816;20.092;2022-10-22T03:41:48;97532.92;;;6.62;65.65
37142;BME280;23041;49.816;20.092;2022-10-22T03:44:16;97530.90;;;6.70;65.78
37142;BME280;23041;49.816;20.092;2022-10-22T03:46:43;97529.16;;;6.68;65.85
37142;BME280;23041;49.816;20.092;2022-10-22T03:49:10;97539.86;;;6.70;65.93
37142;BME280;23041;49.816;20.092;2022-10-22T03:51:36;97531.73;;;6.67;65.98
37142;BME280;23041;49.816;20.092;2022-10-22T03:54:03;97529.02;;;6.63;66.03
37142;BME280;23041;49.816;20.092;2022-10-22T03:56:30;97519.41;;;6.51;66.09
37142;BME280;23041;49.816;20.092;2022-10-22T03:58:57;97507.64;;;6.43;66.13
37142;BME280;23041;49.816;20.092;2022-10-22T04:01:25;97515.77;;;6.46;66.24
37142;BME280;23041;49.816;20.092;2022-10-22T04:03:53;97516.30;;;6.49;66.30
37142;BME280;23041;49.816;20.092;2022-10-22T04:06:19;97525.05;;;6.52;66.38
37142;BME280;23041;49.816;20.092;2022-10-22T04:08:46;97516.16;;;6.64;66.41
37142;BME280;23041;49.816;20.092;2022-10-22T04:11:13;97520.62;;;6.66;66.45
37142;BME280;23041;49.816;20.092;2022-10-22T04:13:41;97518.23;;;6.52;66.47
37142;BME280;23041;49.816;20.092;2022-10-22T04:16:10;97521.34;;;6.54;66.50
37142;BME280;23041;49.816;20.092;2022-10-22T04:18:41;97516.66;;;6.55;66.55
37142;BME280;23041;49.816;20.092;2022-10-22T04:21:09;97510.25;;;6.53;66.61
37142;BME280;23041;49.816;20.092;2022-10-22T04:23:38;97501.28;;;6.53;66.65
37142;BME280;23041;49.816;20.092;2022-10-22T04:26:06;97491.89;;;6.39;66.70
37142;BME280;23041;49.816;20.092;2022-10-22T04:28:33;97484.60;;;6.29;66.74
37142;BME280;23041;49.816;20.092;2022-10-22T04:31:00;97479.53;;;6.31;66.85
37142;BME280;23041;49.816;20.092;2022-10-22T04:33:28;97474.86;;;6.31;66.92
37142;BME280;23041;49.816;20.092;2022-10-22T04:35:54;97473.62;;;6.36;67.00
37142;BME280;23041;49.816;20.092;2022-10-22T04:38:20;97476.38;;;6.51;67.06
37142;BME280;23041;49.816;20.092;2022-10-22T04:40:47;97481.80;;;6.54;67.12
37142;BME280;23041;49.816;20.092;2022-10-22T04:43:13;97481.56;;;6.57;67.15
37142;BME280;23041;49.816;20.092;2022-10-22T04:45:40;97493.50;;;6.51;67.18
37142;BME280;23041;49.816;20.092;2022-10-22T04:48:06;97490.45;;;6.46;67.22
37142;BME280;23041;49.816;20.092;2022-10-22T04:50:32;97491.44;;;6.44;67.24
37142;BME280;23041;49.816;20.092;2022-10-22T04:52:59;97500.32;;;6.33;67.28
37142;BME280;23041;49.816;20.092;2022-10-22T04:55:25;97491.67;;;6.23;67.36
37142;BME280;23041;49.816;20.092;2022-10-22T04:57:51;97499.02;;;6.26;67.46
37142;BME280;23041;49.816;20.092;2022-10-22T05:00:20;97496.73;;;6.24;67.51
37142;BME280;23041;49.816;20.092;2022-10-22T05:02:49;97503.97;;;6.38;67.57
37142;BME280;23041;49.816;20.092;2022-10-22T05:05:16;97510.43;;;6.36;67.62
37142;BME280;23041;49.816;20.092;2022-10-22T05:07:42;97508.63;;;6.41;67.65
37142;BME280;23041;49.816;20.092;2022-10-22T05:10:11;97507.64;;;6.43;67.70
37142;BME280;23041;49.816;20.092;2022-10-22T05:12:38;97517.51;;;6.48;67.77
37142;BME280;23041;49.816;20.092;2022-10-22T05:15:05;97521.22;;;6.46;67.82
37142;BME280;23041;49.816;20.092;2022-10-22T05:17:35;97527.84;;;6.45;67.85
37142;BME280;23041;49.816;20.092;2022-10-22T05:20:03;97524.72;;;6.47;67.92
37142;BME280;23041;49.816;20.092;2022-10-22T05:22:32;97526.72;;;6.43;67.94
37142;BME280;23041;49.816;20.092;2022-10-22T05:24:59;97531.14;;;6.26;67.99
37142;BME280;23041;49.816;20.092;2022-10-22T05:27:26;97539.32;;;6.26;68.02
37142;BME280;23041;49.816;20.092;2022-10-22T05:29:53;97527.23;;;6.31;68.06
37142;BME280;23041;49.816;20.092;2022-10-22T05:32:19;97533.22;;;6.34;68.09
37142;BME280;23041;49.816;20.092;2022-10-22T05:34:45;97532.33;;;6.44;68.09
37142;BME280;23041;49.816;20.092;2022-10-22T05:37:11;97527.98;;;6.50;68.10
37142;BME280;23041;49.816;20.092;2022-10-22T05:39:38;97530.20;;;6.62;68.12
37142;BME280;23041;49.816;20.092;2022-10-22T05:42:06;97523.17;;;6.65;68.14
37142;BME280;23041;49.816;20.092;2022-10-22T05:44:32;97524.45;;;6.72;68.15
37142;BME280;23041;49.816;20.092;2022-10-22T05:46:59;97532.98;;;6.74;68.14
37142;BME280;23041;49.816;20.092;2022-10-22T05:49:25;97532.97;;;6.77;68.13
37142;BME280;23041;49.816;20.092;2022-10-22T05:51:51;97525.83;;;6.72;68.14
37142;BME280;23041;49.816;20.092;2022-10-22T05:54:19;97533.05;;;6.85;68.21
37142;BME280;23041;49.816;20.092;2022-10-22T05:56:47;97537.94;;;7.16;68.28
37142;BME280;23041;49.816;20.092;2022-10-22T05:59:14;97523.64;;;7.35;68.38
37142;BME280;23041;49.816;20.092;2022-10-22T06:01:40;97525.19;;;7.63;68.41
37142;BME280;23041;49.816;20.092;2022-10-22T06:04:09;97526.84;;;7.84;68.43
37142;BME280;23041;49.816;20.092;2022-10-22T06:06:42;97529.58;;;7.96;68.41
37142;BME280;23041;49.816;20.092;2022-10-22T06:09:17;97529.21;;;8.17;68.40
37142;BME280;23041;49.816;20.092;2022-10-22T06:11:46;97530.28;;;8.23;68.40
37142;BME280;23041;49.816;20.092;2022-10-22T06:14:13;97532.79;;;8.26;68.37
37142;BME280;23041;49.816;20.092;2022-10-22T06:16:40;97536.80;;;8.33;68.34
37142;BME280;23041;49.816;20.092;2022-10-22T06:19:15;97541.20;;;8.38;68.28
37142;BME280;23041;49.816;20.092;2022-10-22T06:21:38;97533.10;;;8.43;68.24
37142;BME280;23041;49.816;20.092;2022-10-22T06:24:06;97528.88;;;8.50;68.23
37142;BME280;23041;49.816;20.092;2022-10-22T06:26:33;97536.69;;;8.91;68.27
37142;BME280;23041;49.816;20.092;2022-10-22T06:29:00;97545.80;;;9.52;68.28
37142;BME280;23041;49.816;20.092;2022-10-22T06:31:27;97542.80;;;10.31;68.31
37142;BME280;23041;49.816;20.092;2022-10-22T06:33:55;97543.58;;;11.18;68.31
37142;BME280;23041;49.816;20.092;2022-10-22T06:36:23;97543.20;;;11.70;68.24
37142;BME280;23041;49.816;20.092;2022-10-22T06:38:53;97549.20;;;12.11;67.95
37142;BME280;23041;49.816;20.092;2022-10-22T06:41:21;97553.07;;;12.60;67.57
37142;BME280;23041;49.816;20.092;2022-10-22T06:43:48;97546.16;;;12.95;67.06
37142;BME280;23041;49.816;20.092;2022-10-22T06:46:17;97557.51;;;13.14;66.56
37142;BME280;23041;49.816;20.092;2022-10-22T06:48:53;97556.58;;;14.54;66.07
37142;BME280;23041;49.816;20.092;2022-10-22T06:51:21;97545.27;;;16.90;65.70
37142;BME280;23041;49.816;20.092;2022-10-22T06:53:47;97549.73;;;18.59;64.92
37142;BME280;23041;49.816;20.092;2022-10-22T06:56:16;97555.63;;;20.58;63.78
37142;BME280;23041;49.816;20.092;2022-10-22T06:58:48;97550.53;;;22.26;62.27
37142;BME280;23041;49.816;20.092;2022-10-22T07:01:18;97557.28;;;23.74;60.33
37142;BME280;23041;49.816;20.092;2022-10-22T07:03:46;97553.98;;;24.35;58.04
37142;BME280;23041;49.816;20.092;2022-10-22T07:06:15;97549.84;;;24.30;56.01
37142;BME280;23041;49.816;20.092;2022-10-22T07:08:43;97549.11;;;23.94;54.12
37142;BME280;23041;49.816;20.092;2022-10-22T07:11:12;97553.34;;;24.60;52.48
37142;BME280;23041;49.816;20.092;2022-10-22T07:13:41;97553.58;;;26.19;50.98
37142;BME280;23041;49.816;20.092;2022-10-22T07:16:08;97562.95;;;26.60;49.02
37142;BME280;23041;49.816;20.092;2022-10-22T07:18:35;97561.68;;;27.88;47.56
37142;BME280;23041;49.816;20.092;2022-10-22T07:21:04;97560.56;;;27.91;45.85
37142;BME280;23041;49.816;20.092;2022-10-22T07:23:31;97568.06;;;29.29;44.19
37142;BME280;23041;49.816;20.092;2022-10-22T07:25:58;97570.20;;;30.63;42.61
37142;BME280;23041;49.816;20.092;2022-10-22T07:28:27;97566.89;;;29.39;40.83
37142;BME280;23041;49.816;20.092;2022-10-22T07:30:54;97563.69;;;28.85;39.67
37142;BME280;23041;49.816;20.092;2022-10-22T07:33:23;97569.44;;;29.36;38.89
37142;BME280;23041;49.816;20.092;2022-10-22T07:35:50;97575.69;;;28.92;37.95
37142;BME280;23041;49.816;20.092;2022-10-22T07:38:16;97569.86;;;27.72;37.11
37142;BME280;23041;49.816;20.092;2022-10-22T07:40:43;97567.64;;;26.90;36.83
37142;BME280;23041;49.816;20.092;2022-10-22T07:43:09;97570.88;;;27.07;36.64
37142;BME280;23041;49.816;20.092;2022-10-22T07:45:35;97563.06;;;26.54;36.39
37142;BME280;23041;49.816;20.092;2022-10-22T07:48:03;97558.38;;;25.98;36.21
37142;BME280;23041;49.816;20.092;2022-10-22T07:50:30;97566.47;;;25.89;36.02
37142;BME280;23041;49.816;20.092;2022-10-22T07:52:56;97573.06;;;25.10;35.94
37142;BME280;23041;49.816;20.092;2022-10-22T07:55:23;97563.38;;;24.26;36.00
37142;BME280;23041;49.816;20.092;2022-10-22T07:57:49;97550.84;;;23.44;36.13
37142;BME280;23041;49.816;20.092;2022-10-22T08:00:16;97557.03;;;23.31;36.46
37142;BME280;23041;49.816;20.092;2022-10-22T08:02:44;97550.27;;;22.87;36.75
37142;BME280;23041;49.816;20.092;2022-10-22T08:05:11;97551.69;;;22.64;37.08
37142;BME280;23041;49.816;20.092;2022-10-22T08:07:39;97554.87;;;23.54;37.39
37142;BME280;23041;49.816;20.092;2022-10-22T08:10:07;97555.42;;;24.91;37.51
37142;BME280;23041;49.816;20.092;2022-10-22T08:12:34;97548.78;;;25.75;37.23
37142;BME280;23041;49.816;20.092;2022-10-22T08:15:01;97545.61;;;26.29;36.71
37142;BME280;23041;49.816;20.092;2022-10-22T08:17:27;97548.94;;;26.21;36.22
37142;BME280;23041;49.816;20.092;2022-10-22T08:19:54;97548.34;;;25.71;35.93
37142;BME280;23041;49.816;20.092;2022-10-22T08:22:20;97555.00;;;25.05;35.81
37142;BME280;23041;49.816;20.092;2022-10-22T08:24:46;97546.92;;;24.41;35.86
37142;BME280;23041;49.816;20.092;2022-10-22T08:27:13;97540.97;;;23.90;35.99
37142;BME280;23041;49.816;20.092;2022-10-22T08:29:40;97538.22;;;23.26;36.20
37142;BME280;23041;49.816;20.092;2022-10-22T08:32:06;97550.08;;;22.57;36.44
37142;BME280;23041;49.816;20.092;2022-10-22T08:34:33;97564.13;;;21.90;36.71
37142;BME280;23041;49.816;20.092;2022-10-22T08:36:59;97583.50;;;21.44;37.10
37142;BME280;23041;49.816;20.092;2022-10-22T08:39:26;97586.02;;;21.10;37.44
37142;BME280;23041;49.816;20.092;2022-10-22T08:42:27;97590.84;;;20.77;37.83
37142;BME280;23041;49.816;20.092;2022-10-22T08:50:24;97596.11;;;19.54;39.62
37142;BME280;23041;49.816;20.092;2022-10-22T08:52:54;97601.74;;;19.75;40.07
37142;BME280;23041;49.816;20.092;2022-10-22T08:55:22;97601.74;;;19.75;40.07
37142;BME280;23041;49.816;20.092;2022-10-22T09:00:36;97603.95;;;19.55;39.92
37142;BME280;23041;49.816;20.092;2022-10-22T09:03:26;97605.09;;;19.33;40.14
37142;BME280;23041;49.816;20.092;2022-10-22T09:08:39;97596.36;;;18.80;40.49
37142;BME280;23041;49.816;20.092;2022-10-22T09:13:49;97602.25;;;18.17;41.20
37142;BME280;23041;49.816;20.092;2022-10-22T09:19:02;97608.16;;;17.75;42.45
37142;BME280;23041;49.816;20.092;2022-10-22T09:24:47;97598.05;;;17.34;43.47
37142;BME280;23041;49.816;20.092;2022-10-22T09:27:21;97601.30;;;17.13;44.04
37142;BME280;23041;49.816;20.092;2022-10-22T09:29:48;97601.23;;;17.03;44.46
37142;BME280;23041;49.816;20.092;2022-10-22T09:32:15;97615.95;;;16.90;44.79
37142;BME280;23041;49.816;20.092;2022-10-22T09:34:44;97626.77;;;16.83;45.12
37142;BME280;23041;49.816;20.092;2022-10-22T09:37:17;97627.00;;;16.70;45.44
37142;BME280;23041;49.816;20.092;2022-10-22T09:39:47;97612.73;;;16.58;45.75
37142;BME280;23041;49.816;20.092;2022-10-22T09:42:19;97610.30;;;16.56;46.06
37142;BME280;23041;49.816;20.092;2022-10-22T09:44:52;97600.14;;;16.53;46.34
37142;BME280;23041;49.816;20.092;2022-10-22T09:50:28;97585.36;;;16.60;46.94
37142;BME280;23041;49.816;20.092;2022-10-22T09:55:57;97599.20;;;16.84;47.52
37142;BME280;23041;49.816;20.092;2022-10-22T09:58:23;97601.94;;;16.89;47.66
37142;BME280;23041;49.816;20.092;2022-10-22T10:00:58;97597.20;;;16.85;47.76
37142;BME280;23041;49.816;20.092;2022-10-22T10:03:28;97591.66;;;16.85;47.89
37142;BME280;23041;49.816;20.092;2022-10-22T10:05:58;97590.89;;;16.84;48.00
37142;BME280;23041;49.816;20.092;2022-10-22T10:08:28;97591.20;;;16.82;48.12
37142;BME280;23041;49.816;20.092;2022-10-22T10:11:05;97583.98;;;16.56;48.25
37142;BME280;23041;49.816;20.092;2022-10-22T10:16:25;97579.21;;;16.52;48.67
37142;BME280;23041;49.816;20.092;2022-10-22T10:19:06;97586.14;;;16.52;48.83
37142;BME280;23041;49.816;20.092;2022-10-22T10:27:13;97578.81;;;16.44;49.09
37142;BME280;23041;49.816;20.092;2022-10-22T10:30:02;97572.57;;;16.30;49.22
37142;BME280;23041;49.816;20.092;2022-10-22T10:35:40;97575.43;;;16.12;49.74
37142;BME280;23041;49.816;20.092;2022-10-22T10:39:13;97575.48;;;16.03;49.98
37142;BME280;23041;49.816;20.092;2022-10-22T10:41:28;97584.86;;;16.01;50.23
37142;BME280;23041;49.816;20.092;2022-10-22T10:44:14;97586.70;;;15.99;50.49
37142;BME280;23041;49.816;20.092;2022-10-22T10:49:31;97598.92;;;15.83;51.10
37142;BME280;23041;49.816;20.092;2022-10-22T10:52:15;97605.69;;;15.73;51.48
37142;BME280;23041;49.816;20.092;2022-10-22T11:01:07;97618.44;;;15.80;52.35
37142;BME280;23041;49.816;20.092;2022-10-22T11:06:37;97606.79;;;15.71;52.55
37142;BME280;23041;49.816;20.092;2022-10-22T11:09:10;97601.28;;;15.58;52.67
37142;BME280;23041;49.816;20.092;2022-10-22T11:11:54;97597.43;;;15.46;52.93
37142;BME280;23041;49.816;20.092;2022-10-22T11:19:58;97590.68;;;15.33;53.70
37142;BME280;23041;49.816;20.092;2022-10-22T11:22:29;97596.06;;;15.41;53.85
37142;BME280;23041;49.816;20.092;2022-10-22T11:25:21;97596.69;;;15.36;54.01
37142;BME280;23041;49.816;20.092;2022-10-22T11:28:01;97603.74;;;15.42;54.17
37142;BME280;23041;49.816;20.092;2022-10-22T11:30:33;97603.44;;;15.49;54.38
37142;BME280;23041;49.816;20.092;2022-10-22T11:33:03;97599.13;;;15.57;54.61
37142;BME280;23041;49.816;20.092;2022-10-22T11:35:33;97596.83;;;15.60;54.80
37142;BME280;23041;49.816;20.092;2022-10-22T11:38:04;97596.97;;;15.66;55.02
37142;BME280;23041;49.816;20.092;2022-10-22T11:40:35;97594.36;;;15.67;55.20
37142;BME280;23041;49.816;20.092;2022-10-22T11:43:09;97591.58;;;15.62;55.38
37142;BME280;23041;49.816;20.092;2022-10-22T11:45:39;97589.16;;;15.55;55.42
37142;BME280;23041;49.816;20.092;2022-10-22T11:50:50;97596.19;;;15.51;55.65
37142;BME280;23041;49.816;20.092;2022-10-22T11:53:31;97590.07;;;15.43;55.75
37142;BME280;23041;49.816;20.092;2022-10-22T11:56:20;97587.00;;;15.36;55.90
37142;BME280;23041;49.816;20.092;2022-10-22T11:58:40;97581.48;;;15.36;56.14
37142;BME280;23041;49.816;20.092;2022-10-22T12:06:20;97577.92;;;15.31;57.08
37142;BME280;23041;49.816;20.092;2022-10-22T12:08:56;97576.09;;;15.33;57.31
37142;BME280;23041;49.816;20.092;2022-10-22T12:11:45;97576.07;;;15.37;57.54
37142;BME280;23041;49.816;20.092;2022-10-22T12:19:42;97573.62;;;15.39;58.26
37142;BME280;23041;49.816;20.092;2022-10-22T12:22:34;97565.02;;;15.37;58.47
37142;BME280;23041;49.816;20.092;2022-10-22T12:24:51;97563.03;;;15.33;58.58
37142;BME280;23041;49.816;20.092;2022-10-22T12:27:37;97562.89;;;15.28;58.70
37142;BME280;23041;49.816;20.092;2022-10-22T12:30:28;97549.53;;;15.08;58.85
37142;BME280;23041;49.816;20.092;2022-10-22T12:33:01;97549.09;;;15.05;58.99
37142;BME280;23041;49.816;20.092;2022-10-22T12:35:32;97556.61;;;15.09;59.15
37142;BME280;23041;49.816;20.092;2022-10-22T12:38:18;97552.47;;;15.04;59.28
37142;BME280;23041;49.816;20.092;2022-10-22T12:40:42;97550.79;;;15.07;59.44
37142;BME280;23041;49.816;20.092;2022-10-22T12:43:15;97561.22;;;14.98;59.61
37142;BME280;23041;49.816;20.092;2022-10-22T12:45:47;97553.69;;;14.90;59.79
37142;BME280;23041;49.816;20.092;2022-10-22T12:48:26;97547.70;;;14.91;60.00
37142;BME280;23041;49.816;20.092;2022-10-22T12:50:59;97551.70;;;14.86;60.14
37142;BME280;23041;49.816;20.092;2022-10-22T12:56:06;97540.64;;;14.67;60.47
37142;BME280;23041;49.816;20.092;2022-10-22T12:58:44;97544.63;;;14.62;60.71
37142;BME280;23041;49.816;20.092;2022-10-22T13:01:13;97544.17;;;14.63;60.93
37142;BME280;23041;49.816;20.092;2022-10-22T13:03:44;97554.77;;;14.74;61.08
37142;BME280;23041;49.816;20.092;2022-10-22T13:09:17;97546.16;;;14.72;61.35
37142;BME280;23041;49.816;20.092;2022-10-22T13:11:54;97554.16;;;14.79;61.52
37142;BME280;23041;49.816;20.092;2022-10-22T13:14:35;97553.38;;;14.79;61.69
37142;BME280;23041;49.816;20.092;2022-10-22T13:19:47;97551.55;;;14.80;61.99
37142;BME280;23041;49.816;20.092;2022-10-22T13:22:29;97540.80;;;14.64;62.12
37142;BME280;23041;49.816;20.092;2022-10-22T13:27:54;97547.71;;;14.59;62.37
37142;BME280;23041;49.816;20.092;2022-10-22T13:30:23;97559.05;;;14.66;62.47
37142;BME280;23041;49.816;20.092;2022-10-22T13:33:16;97555.67;;;14.66;62.55
37142;BME280;23041;49.816;20.092;2022-10-22T13:35:51;97551.40;;;14.65;62.66
37142;BME280;23041;49.816;20.092;2022-10-22T13:38:20;97550.61;;;14.56;62.77
37142;BME280;23041;49.816;20.092;2022-10-22T13:40:47;97545.24;;;14.57;62.85
37142;BME280;23041;49.816;20.092;2022-10-22T13:43:15;97545.72;;;14.64;62.97
37142;BME280;23041;49.816;20.092;2022-10-22T13:45:43;97547.23;;;14.61;63.08
37142;BME280;23041;49.816;20.092;2022-10-22T13:48:18;97546.91;;;14.54;63.16
37142;BME280;23041;49.816;20.092;2022-10-22T13:50:48;97539.84;;;14.40;63.29
37142;BME280;23041;49.816;20.092;2022-10-22T13:53:17;97535.26;;;14.46;63.41
37142;BME280;23041;49.816;20.092;2022-10-22T13:55:49;97532.66;;;14.47;63.56
37142;BME280;23041;49.816;20.092;2022-10-22T13:58:21;97542.64;;;14.58;63.62
37142;BME280;23041;49.816;20.092;2022-10-22T14:00:53;97543.38;;;14.54;63.70
37142;BME280;23041;49.816;20.092;2022-10-22T14:03:30;97542.77;;;14.54;63.79
37142;BME280;23041;49.816;20.092;2022-10-22T14:05:58;97540.02;;;14.45;63.86
37142;BME280;23041;49.816;20.092;2022-10-22T14:08:26;97532.78;;;14.39;63.96
37142;BME280;23041;49.816;20.092;2022-10-22T14:10:53;97520.75;;;14.19;64.08
37142;BME280;23041;49.816;20.092;2022-10-22T14:13:20;97515.55;;;14.21;64.21
37142;BME280;23041;49.816;20.092;2022-10-22T14:15:48;97520.49;;;14.35;64.32
37142;BME280;23041;49.816;20.092;2022-10-22T14:18:22;97516.83;;;14.38;64.41
37142;BME280;23041;49.816;20.092;2022-10-22T14:20:54;97514.39;;;14.40;64.49
37142;BME280;23041;49.816;20.092;2022-10-22T14:23:24;97515.00;;;14.44;64.58
37142;BME280;23041;49.816;20.092;2022-10-22T14:25:51;97516.37;;;14.44;64.67
37142;BME280;23041;49.816;20.092;2022-10-22T14:28:19;97511.79;;;14.46;64.75
37142;BME280;23041;49.816;20.092;2022-10-22T14:30:45;97520.69;;;14.41;64.83
37142;BME280;23041;49.816;20.092;2022-10-22T14:33:21;97505.56;;;14.19;64.89
37142;BME280;23041;49.816;20.092;2022-10-22T14:35:53;97501.10;;;14.08;65.02
37142;BME280;23041;49.816;20.092;2022-10-22T14:38:20;97514.29;;;14.08;65.15
37142;BME280;23041;49.816;20.092;2022-10-22T14:40:46;97516.59;;;14.05;65.26
37142;BME280;23041;49.816;20.092;2022-10-22T14:45:48;97519.20;;;14.09;65.43
37142;BME280;23041;49.816;20.092;2022-10-22T14:48:14;97523.94;;;13.99;65.51
37142;BME280;23041;49.816;20.092;2022-10-22T14:50:42;97522.55;;;13.99;65.60
37142;BME280;23041;49.816;20.092;2022-10-22T14:53:09;97526.09;;;14.04;65.68
37142;BME280;23041;49.816;20.092;2022-10-22T14:55:36;97519.30;;;13.92;65.77
37142;BME280;23041;49.816;20.092;2022-10-22T14:58:03;97520.52;;;13.86;65.88
37142;BME280;23041;49.816;20.092;2022-10-22T15:00:29;97520.63;;;13.82;65.96
37142;BME280;23041;49.816;20.092;2022-10-22T15:02:55;97530.78;;;13.85;66.05
37142;BME280;23041;49.816;20.092;2022-10-22T15:05:24;97536.48;;;14.00;66.12